EGNM/LBA METAR and TAF weather

Enter ICAO airport designator
Station Type Date Time Source
EGNM METAR 2018/04/21 11:20 UTC NOAA

EGNM 211120Z 12007KT 090V170 CAVOK 15/07 Q1020


Station Type Date Time Source
EGNM Decoded METAR 2018/04/21 11:20 UTC NOAA

Leeds And Bradford, United Kingdom (EGNM) 53-52N 001-39W
Apr 21, 2018 - 07:20 AM EDT / 2018.04.21 1120 UTC
Wind: from the ESE (120 degrees) at 8 MPH (7 KT) (direction variable):0
Visibility: greater than 7 mile(s):0
Temperature: 59 F (15 C)
Dew Point: 44 F (7 C)
Relative Humidity: 58%
Pressure (altimeter): 30.12 in. Hg (1020 hPa)
ob: EGNM 211120Z 12007KT 090V170 CAVOK 15/07 Q1020
cycle: 11

Station Type Date Time Source
EGNM TAF 2018/04/21 12:15 UTC NOAA

TAF TAF EGNM 211056Z 2112/2212 15008KT 9999 SCT045 PROB30
TEMPO 2115/2201 VRB15G25KT 5000 +SHRA TSGR
BECMG 2203/2206 23010KT PROB30 2203/2208 8000 BKN010
TEMPO 2208/2212 6000 RA BKN010


Example: see airport list